Time,TemperatureF,DewpointF,PressureIn,WindDirection,WindDirectionDegrees,WindSpeedMPH,WindSpeedGustMPH,Humidity,HourlyPrecipIn,Conditions,Clouds,dailyrainin,SoftwareType,DateUTC
2013-07-02 00:11:00,75.3,70.0,29.94,WSW,240,4.0,-999.0,83,-99.99,,,0.00,weatherlink.com 1.10,2013-07-02 04:11:00,
2013-07-02 00:26:00,74.9,70.0,29.94,WSW,256,0.0,-999.0,85,-99.99,,,0.00,weatherlink.com 1.10,2013-07-02 04:26:00,
2013-07-02 00:41:00,74.2,70.0,29.95,WSW,256,0.0,-999.0,86,-99.99,,,0.00,weatherlink.com 1.10,2013-07-02 04:41:00,
2013-07-02 00:56:00,73.5,69.0,29.95,WSW,256,2.0,-999.0,86,-99.99,,,0.00,weatherlink.com 1.10,2013-07-02 04:56:00,
2013-07-02 01:11:00,72.4,69.0,29.95,WSW,256,0.0,-999.0,89,-99.99,,,0.00,weatherlink.com 1.10,2013-07-02 05:11:00,
2013-07-02 01:26:00,72.1,69.0,29.95,WSW,256,0.0,-999.0,91,-99.99,,,0.00,weatherlink.com 1.10,2013-07-02 05:26:00,
2013-07-02 01:41:00,71.9,69.0,29.95,WSW,256,0.0,-999.0,91,-99.99,,,0.00,weatherlink.com 1.10,2013-07-02 05:41:00,
2013-07-02 01:56:00,71.7,69.0,29.95,WSW,256,0.0,-999.0,92,-99.99,,,0.00,weatherlink.com 1.10,2013-07-02 05:56:00,
2013-07-02 02:11:00,71.5,69.0,29.95,WSW,256,0.0,-999.0,92,-99.99,,,0.00,weatherlink.com 1.10,2013-07-02 06:11:00,
2013-07-02 02:26:00,71.3,69.0,29.94,WSW,256,2.0,-999.0,92,-99.99,,,0.00,weatherlink.com 1.10,2013-07-02 06:26:00,
2013-07-02 02:41:00,71.1,69.0,29.94,WSW,256,0.0,-999.0,93,-99.99,,,0.00,weatherlink.com 1.10,2013-07-02 06:41:00,
2013-07-02 02:56:00,71.1,69.0,29.95,WSW,256,0.0,-999.0,93,-99.99,,,0.00,weatherlink.com 1.10,2013-07-02 06:56:00,
2013-07-02 03:11:00,70.9,69.0,29.95,WSW,256,0.0,-999.0,94,-99.99,,,0.02,weatherlink.com 1.10,2013-07-02 07:11:00,
2013-07-02 03:26:00,71.0,69.0,29.95,SSW,213,4.0,-999.0,94,-99.99,,,0.02,weatherlink.com 1.10,2013-07-02 07:26:00,
2013-07-02 03:41:00,71.1,70.0,29.95,SSW,213,0.0,-999.0,95,-99.99,,,0.02,weatherlink.com 1.10,2013-07-02 07:41:00,
2013-07-02 03:56:00,71.2,69.0,29.95,SSW,213,0.0,-999.0,94,-99.99,,,0.03,weatherlink.com 1.10,2013-07-02 07:56:00,
2013-07-02 04:11:00,71.0,70.0,29.96,SSW,213,0.0,-999.0,95,-99.99,,,0.03,weatherlink.com 1.10,2013-07-02 08:11:00,
2013-07-02 04:26:00,71.0,70.0,29.96,SSW,213,0.0,-999.0,95,-99.99,,,0.03,weatherlink.com 1.10,2013-07-02 08:26:00,
2013-07-02 04:41:00,71.0,70.0,29.97,SSW,213,0.0,-999.0,95,-99.99,,,0.03,weatherlink.com 1.10,2013-07-02 08:41:00,
2013-07-02 04:56:00,71.1,70.0,29.97,SSW,213,0.0,-999.0,96,-99.99,,,0.03,weatherlink.com 1.10,2013-07-02 08:56:00,
2013-07-02 05:11:00,71.0,70.0,29.97,SSW,213,0.0,-999.0,95,-99.99,,,0.03,weatherlink.com 1.10,2013-07-02 09:11:00,
2013-07-02 05:26:00,71.0,70.0,29.98,SSW,213,0.0,-999.0,96,-99.99,,,0.03,weatherlink.com 1.10,2013-07-02 09:26:00,
2013-07-02 05:56:00,71.1,70.0,29.99,SSW,213,0.0,-999.0,96,-99.99,,,0.03,weatherlink.com 1.10,2013-07-02 09:56:00,
2013-07-02 06:11:00,71.1,70.0,29.99,SSW,213,0.0,-999.0,96,-99.99,,,0.03,weatherlink.com 1.10,2013-07-02 10:11:00,
2013-07-02 06:26:00,71.1,70.0,30.00,SSW,213,0.0,-999.0,96,-99.99,,,0.03,weatherlink.com 1.10,2013-07-02 10:26:00,
2013-07-02 06:41:00,71.3,70.0,30.00,SSW,213,0.0,-999.0,96,-99.99,,,0.03,weatherlink.com 1.10,2013-07-02 10:41:00,
2013-07-02 06:56:00,71.5,70.0,30.00,SSW,213,0.0,-999.0,96,-99.99,,,0.03,weatherlink.com 1.10,2013-07-02 10:56:00,
2013-07-02 07:11:00,71.7,71.0,30.01,SSW,213,0.0,-999.0,96,-99.99,,,0.03,weatherlink.com 1.10,2013-07-02 11:11:00,
2013-07-02 07:26:00,72.0,71.0,30.00,SSW,213,1.0,-999.0,96,-99.99,,,0.03,weatherlink.com 1.10,2013-07-02 11:26:00,
2013-07-02 07:41:00,72.4,72.0,30.01,SSW,213,0.0,-999.0,97,-99.99,,,0.03,weatherlink.com 1.10,2013-07-02 11:41:00,
2013-07-02 07:56:00,73.0,72.0,30.01,SSW,213,2.0,-999.0,96,-99.99,,,0.03,weatherlink.com 1.10,2013-07-02 11:56:00,
2013-07-02 08:11:00,73.0,72.0,30.02,SSW,213,1.0,-999.0,96,-99.99,,,0.03,weatherlink.com 1.10,2013-07-02 12:11:00,
2013-07-02 08:26:00,73.0,72.0,30.03,SSW,213,3.0,-999.0,96,-99.99,,,0.03,weatherlink.com 1.10,2013-07-02 12:26:00,
2013-07-02 08:41:00,73.2,72.0,30.03,West,279,2.0,-999.0,95,-99.99,,,0.03,weatherlink.com 1.10,2013-07-02 12:41:00,
2013-07-02 08:56:00,73.4,72.0,30.03,WNW,282,0.0,-999.0,95,-99.99,,,0.03,weatherlink.com 1.10,2013-07-02 12:56:00,
2013-07-02 09:11:00,74.0,73.0,30.04,West,279,0.0,-999.0,95,-99.99,,,0.03,weatherlink.com 1.10,2013-07-02 13:11:00,
2013-07-02 09:26:00,74.4,72.0,30.04,WSW,240,4.0,-999.0,93,-99.99,,,0.03,weatherlink.com 1.10,2013-07-02 13:26:00,
2013-07-02 09:41:00,75.2,73.0,30.04,SW,234,3.0,-999.0,91,-99.99,,,0.03,weatherlink.com 1.10,2013-07-02 13:41:00,
2013-07-02 09:56:00,76.1,72.0,30.04,SSW,192,7.0,-999.0,87,-99.99,,,0.03,weatherlink.com 1.10,2013-07-02 13:56:00,
2013-07-02 10:11:00,76.7,72.0,30.04,South,186,7.0,-999.0,86,-99.99,,,0.03,weatherlink.com 1.10,2013-07-02 14:11:00,
2013-07-02 10:26:00,77.1,72.0,30.05,South,188,6.0,-999.0,85,-99.99,,,0.03,weatherlink.com 1.10,2013-07-02 14:26:00,
2013-07-02 10:41:00,77.9,73.0,30.04,SSW,193,7.0,-999.0,84,-99.99,,,0.03,weatherlink.com 1.10,2013-07-02 14:41:00,
2013-07-02 10:56:00,78.6,72.0,30.05,SSW,200,3.0,-999.0,80,-99.99,,,0.03,weatherlink.com 1.10,2013-07-02 14:56:00,
2013-07-02 11:11:00,79.1,72.0,30.05,South,188,5.0,-999.0,78,-99.99,,,0.03,weatherlink.com 1.10,2013-07-02 15:11:00,
2013-07-02 11:26:00,79.4,72.0,30.05,SSE,168,6.0,-999.0,78,-99.99,,,0.03,weatherlink.com 1.10,2013-07-02 15:26:00,
2013-07-02 11:41:00,78.6,71.0,30.06,South,180,9.0,-999.0,78,-99.99,,,0.03,weatherlink.com 1.10,2013-07-02 15:41:00,
2013-07-02 11:56:00,79.4,72.0,30.05,SSW,203,6.0,-999.0,79,-99.99,,,0.03,weatherlink.com 1.10,2013-07-02 15:56:00,
2013-07-02 12:11:00,79.8,73.0,30.05,SSE,166,7.0,-999.0,79,-99.99,,,0.03,weatherlink.com 1.10,2013-07-02 16:11:00,
2013-07-02 12:26:00,79.5,73.0,30.05,South,171,9.0,-999.0,79,-99.99,,,0.03,weatherlink.com 1.10,2013-07-02 16:26:00,
2013-07-02 12:41:00,79.0,72.0,30.05,SSE,158,11.0,-999.0,80,-99.99,,,0.03,weatherlink.com 1.10,2013-07-02 16:41:00,
2013-07-02 12:56:00,78.6,72.0,30.06,South,185,9.0,-999.0,80,-99.99,,,0.03,weatherlink.com 1.10,2013-07-02 16:56:00,
2013-07-02 13:11:00,78.3,72.0,30.06,SSE,147,13.0,-999.0,82,-99.99,,,0.03,weatherlink.com 1.10,2013-07-02 17:11:00,
2013-07-02 13:26:00,77.7,72.0,30.07,South,182,4.0,-999.0,83,-99.99,,,0.03,weatherlink.com 1.10,2013-07-02 17:26:00,
2013-07-02 13:41:00,77.2,71.0,30.07,South,186,6.0,-999.0,81,-99.99,,,0.03,weatherlink.com 1.10,2013-07-02 17:41:00,
2013-07-02 13:56:00,77.2,71.0,30.07,SSW,194,10.0,-999.0,82,-99.99,,,0.03,weatherlink.com 1.10,2013-07-02 17:56:00,
2013-07-02 14:11:00,77.0,72.0,30.07,South,184,6.0,-999.0,83,-99.99,,,0.03,weatherlink.com 1.10,2013-07-02 18:11:00,
2013-07-02 14:26:00,77.3,72.0,30.07,SSW,196,10.0,-999.0,83,-99.99,,,0.03,weatherlink.com 1.10,2013-07-02 18:26:00,
2013-07-02 14:41:00,77.0,72.0,30.06,SSW,204,3.0,-999.0,85,-99.99,,,0.03,weatherlink.com 1.10,2013-07-02 18:41:00,
2013-07-02 14:56:00,77.3,71.0,30.07,South,177,7.0,-999.0,82,-99.99,,,0.03,weatherlink.com 1.10,2013-07-02 18:56:00,
2013-07-02 15:11:00,77.7,71.0,30.07,SSE,165,8.0,-999.0,79,-99.99,,,0.03,weatherlink.com 1.10,2013-07-02 19:11:00,
2013-07-02 15:26:00,77.5,70.0,30.07,South,169,4.0,-999.0,78,-99.99,,,0.03,weatherlink.com 1.10,2013-07-02 19:26:00,
2013-07-02 15:41:00,77.4,70.0,30.07,South,169,9.0,-999.0,78,-99.99,,,0.03,weatherlink.com 1.10,2013-07-02 19:41:00,
2013-07-02 15:56:00,77.6,70.0,30.06,SW,214,7.0,-999.0,76,-99.99,,,0.03,weatherlink.com 1.10,2013-07-02 19:56:00,
2013-07-02 16:11:00,77.8,69.0,30.06,WSW,244,5.0,-999.0,75,-99.99,,,0.03,weatherlink.com 1.10,2013-07-02 20:11:00,
2013-07-02 16:26:00,78.2,70.0,30.06,SW,236,8.0,-999.0,76,-99.99,,,0.03,weatherlink.com 1.10,2013-07-02 20:26:00,
2013-07-02 16:41:00,78.1,71.0,30.06,West,259,4.0,-999.0,78,-99.99,,,0.03,weatherlink.com 1.10,2013-07-02 20:41:00,
2013-07-02 16:56:00,77.8,71.0,30.06,SSW,198,3.0,-999.0,79,-99.99,,,0.03,weatherlink.com 1.10,2013-07-02 20:56:00,
2013-07-02 17:11:00,76.9,70.0,30.07,South,170,9.0,-999.0,79,-99.99,,,0.03,weatherlink.com 1.10,2013-07-02 21:11:00,
2013-07-02 17:26:00,76.2,70.0,30.06,South,173,12.0,-999.0,81,-99.99,,,0.03,weatherlink.com 1.10,2013-07-02 21:26:00,
2013-07-02 17:41:00,75.8,70.0,30.06,South,171,6.0,-999.0,83,-99.99,,,0.03,weatherlink.com 1.10,2013-07-02 21:41:00,
2013-07-02 17:56:00,75.7,70.0,30.07,South,175,6.0,-999.0,82,-99.99,,,0.03,weatherlink.com 1.10,2013-07-02 21:56:00,
2013-07-02 18:11:00,75.4,70.0,30.08,South,184,5.0,-999.0,84,-99.99,,,0.03,weatherlink.com 1.10,2013-07-02 22:11:00,
2013-07-02 18:26:00,75.0,70.0,30.09,South,186,4.0,-999.0,84,-99.99,,,0.03,weatherlink.com 1.10,2013-07-02 22:26:00,
2013-07-02 18:41:00,74.4,70.0,30.09,South,185,5.0,-999.0,86,-99.99,,,0.03,weatherlink.com 1.10,2013-07-02 22:41:00,
2013-07-02 18:56:00,74.2,70.0,30.10,SSW,199,2.0,-999.0,87,-99.99,,,0.03,weatherlink.com 1.10,2013-07-02 22:56:00,
2013-07-02 19:11:00,74.2,70.0,30.10,SSW,198,3.0,-999.0,87,-99.99,,,0.03,weatherlink.com 1.10,2013-07-02 23:11:00,
2013-07-02 19:26:00,74.3,70.0,30.10,SSW,204,4.0,-999.0,86,-99.99,,,0.03,weatherlink.com 1.10,2013-07-02 23:26:00,
2013-07-02 19:41:00,74.1,70.0,30.10,West,265,2.0,-999.0,87,-99.99,,,0.03,weatherlink.com 1.10,2013-07-02 23:41:00,
2013-07-02 19:56:00,74.2,70.0,30.10,West,262,3.0,-999.0,86,-99.99,,,0.03,weatherlink.com 1.10,2013-07-02 23:56:00,
2013-07-02 20:11:00,74.0,70.0,30.11,WSW,248,0.0,-999.0,86,-99.99,,,0.03,weatherlink.com 1.10,2013-07-03 00:11:00,
2013-07-02 20:26:00,73.8,70.0,30.11,WSW,248,3.0,-999.0,87,-99.99,,,0.03,weatherlink.com 1.10,2013-07-03 00:26:00,
2013-07-02 20:41:00,73.5,70.0,30.11,WSW,248,2.0,-999.0,87,-99.99,,,0.03,weatherlink.com 1.10,2013-07-03 00:41:00,
2013-07-02 20:56:00,73.1,69.0,30.10,WSW,248,0.0,-999.0,87,-99.99,,,0.03,weatherlink.com 1.10,2013-07-03 00:56:00,
2013-07-02 21:11:00,72.8,69.0,30.10,WSW,248,0.0,-999.0,88,-99.99,,,0.03,weatherlink.com 1.10,2013-07-03 01:11:00,
2013-07-02 21:26:00,73.1,68.0,30.11,SW,225,4.0,-999.0,85,-99.99,,,0.03,weatherlink.com 1.10,2013-07-03 01:26:00,
2013-07-02 21:41:00,73.4,69.0,30.12,SW,236,5.0,-999.0,85,-99.99,,,0.03,weatherlink.com 1.10,2013-07-03 01:41:00,
2013-07-02 21:56:00,73.1,69.0,30.12,South,185,5.0,-999.0,86,-99.99,,,0.03,weatherlink.com 1.10,2013-07-03 01:56:00,
2013-07-02 23:11:00,71.2,69.0,30.12,SSW,198,5.0,-999.0,91,-99.99,,,0.03,weatherlink.com 1.10,2013-07-03 03:11:00,
2013-07-02 23:26:00,70.9,69.0,30.13,SSW,198,2.0,-999.0,92,-99.99,,,0.03,weatherlink.com 1.10,2013-07-03 03:26:00,
2013-07-02 23:41:00,70.9,69.0,30.13,SSW,197,4.0,-999.0,93,-99.99,,,0.03,weatherlink.com 1.10,2013-07-03 03:41:00,
2013-07-02 23:56:00,71.0,69.0,30.13,SSW,197,0.0,-999.0,93,-99.99,,,0.03,weatherlink.com 1.10,2013-07-03 03:56:00,